Time;durP1;ratioP1;P1;durP2;ratioP2;P2;SDS_P1;SDS_P2;PMS_P1;PMS_P2;Temp;Humidity;BMP_temperature;BMP_pressure;BME280_temperature;BME280_humidity;BME280_pressure;Samples;Min_cycle;Max_cycle;Signal;HPM_P1;HPM_P2
2022/09/09 00:02:08;;;;;;;0.30;0.30;;;;;;;11.03;65.90;100577.00;5107446;28;20026;-73
2022/09/09 00:04:38;;;;;;;0.40;0.40;;;;;;;11.08;66.24;100577.84;5125555;28;20053;-73
2022/09/09 00:07:06;;;;;;;0.30;0.30;;;;;;;11.01;66.48;100577.03;5125633;28;20102;-72
2022/09/09 00:09:53;;;;;;;0.40;0.40;;;;;;;11.00;66.68;100564.91;5125331;28;20108;-73
2022/09/09 00:12:52;;;;;;;0.40;0.40;;;;;;;11.00;66.85;100564.06;5125475;28;20072;-74
2022/09/09 00:15:24;;;;;;;0.30;0.30;;;;;;;10.96;67.01;100564.97;5093588;28;20035;-72
2022/09/09 00:18:01;;;;;;;0.30;0.30;;;;;;;10.90;67.17;100561.53;5125621;28;20023;-74
2022/09/09 00:20:34;;;;;;;0.30;0.30;;;;;;;10.91;67.13;100560.63;5125641;28;20494;-72
2022/09/09 00:23:24;;;;;;;0.40;0.40;;;;;;;10.95;67.24;100550.22;5107122;28;20099;-72
2022/09/09 00:26:16;;;;;;;0.30;0.30;;;;;;;10.90;67.40;100545.06;5125258;28;20028;-72
2022/09/09 00:29:17;;;;;;;0.40;0.40;;;;;;;10.87;67.40;100548.56;5125355;28;20046;-72
2022/09/09 00:31:42;;;;;;;0.30;0.30;;;;;;;10.85;67.57;100558.09;5123466;28;20028;-72
2022/09/09 00:34:17;;;;;;;0.30;0.30;;;;;;;10.87;67.57;100547.69;5110617;28;20027;-72
2022/09/09 00:36:45;;;;;;;0.40;0.40;;;;;;;10.84;67.58;100537.31;5110821;28;20023;-73
2022/09/09 00:39:31;;;;;;;0.40;0.40;;;;;;;10.85;67.65;100539.91;5128632;28;20054;-71
2022/09/09 00:42:08;;;;;;;0.40;0.40;;;;;;;10.87;67.57;100542.50;5129018;28;20356;-73
2022/09/09 00:44:36;;;;;;;0.40;0.40;;;;;;;10.88;67.58;100539.88;5128986;28;20412;-72
2022/09/09 00:47:27;;;;;;;0.40;0.40;;;;;;;10.86;67.67;100536.44;5097571;28;20052;-73
2022/09/09 00:50:03;;;;;;;0.50;0.50;;;;;;;10.85;67.72;100542.50;5079563;28;20504;-72
2022/09/09 00:52:52;;;;;;;0.30;0.30;;;;;;;10.84;67.62;100533.00;5086727;28;20277;-72
2022/09/09 00:55:44;;;;;;;0.30;0.30;;;;;;;10.81;67.65;100533.03;5087159;28;20032;-71
2022/09/09 00:58:10;;;;;;;0.50;0.50;;;;;;;10.82;67.55;100516.56;5087910;28;20021;-71
2022/09/09 01:00:43;;;;;;;0.30;0.30;;;;;;;10.83;67.54;100515.69;5087628;28;20082;-70
2022/09/09 01:03:30;;;;;;;0.40;0.40;;;;;;;10.81;67.71;100514.84;5087756;28;20028;-70
2022/09/09 01:06:12;;;;;;;0.65;0.65;;;;;;;10.80;67.75;100504.47;5087862;28;20028;-70
2022/09/09 01:09:08;;;;;;;0.50;0.50;;;;;;;10.81;67.62;100508.78;5086337;28;20031;-70
2022/09/09 01:11:49;;;;;;;0.40;0.40;;;;;;;10.74;67.78;100500.16;5086026;28;20033;-71
2022/09/09 01:14:33;;;;;;;0.35;0.35;;;;;;;10.76;67.84;100501.91;5087650;28;20028;-72
2022/09/09 01:17:05;;;;;;;0.40;0.40;;;;;;;10.77;67.90;100507.94;5087713;28;20039;-72
2022/09/09 01:19:42;;;;;;;0.40;0.40;;;;;;;10.80;67.75;100507.91;5087409;28;20025;-72
2022/09/09 01:22:26;;;;;;;0.40;0.40;;;;;;;10.71;67.83;100488.09;5087470;28;20020;-73
2022/09/09 01:24:54;;;;;;;0.40;0.40;;;;;;;10.72;68.01;100491.56;5087156;28;20468;-73
2022/09/09 01:27:21;;;;;;;0.35;0.35;;;;;;;10.63;67.98;100489.88;5087279;28;20491;-73
2022/09/09 01:29:46;;;;;;;0.30;0.30;;;;;;;10.71;68.04;100500.19;5086034;28;20029;-72
2022/09/09 01:32:39;;;;;;;0.30;0.30;;;;;;;10.72;68.16;100491.56;5087305;28;20541;-72
2022/09/09 01:35:10;;;;;;;0.32;0.32;;;;;;;10.69;68.11;100492.41;5087245;28;20028;-72
2022/09/09 01:37:35;;;;;;;0.40;0.40;;;;;;;10.64;67.91;100494.19;5085885;28;20468;-72
2022/09/09 01:40:01;;;;;;;0.40;0.40;;;;;;;10.63;68.21;100488.16;5085488;28;20020;-72
2022/09/09 01:42:26;;;;;;;0.30;0.30;;;;;;;10.60;68.25;100472.59;5084854;28;20020;-73
2022/09/09 01:44:54;;;;;;;0.30;0.30;;;;;;;10.59;68.24;100483.81;5087155;28;20024;-73
2022/09/09 01:47:19;;;;;;;0.40;0.40;;;;;;;10.59;68.40;100473.44;5108548;28;20047;-73
2022/09/09 01:49:45;;;;;;;0.40;0.40;;;;;;;10.59;68.41;100477.78;5127553;28;20490;-73
2022/09/09 01:52:10;;;;;;;0.40;0.40;;;;;;;10.56;68.57;100472.63;5127615;28;20026;-72
2022/09/09 01:54:36;;;;;;;0.40;0.40;;;;;;;10.54;68.57;100459.66;5127415;28;21701;-72
2022/09/09 01:57:10;;;;;;;0.40;0.40;;;;;;;10.51;68.79;100459.69;5127519;28;20376;-72
2022/09/09 02:00:08;;;;;;;0.40;0.40;;;;;;;10.53;68.88;100465.69;5127318;28;20023;-72
2022/09/09 02:02:54;;;;;;;0.40;0.40;;;;;;;10.56;68.83;100465.69;5127389;28;20024;-72
2022/09/09 02:05:26;;;;;;;0.35;0.35;;;;;;;10.53;68.92;100465.69;5109118;28;20081;-74
2022/09/09 02:08:07;;;;;;;0.40;0.40;;;;;;;10.53;68.85;100469.16;5127374;28;20119;-73
2022/09/09 02:10:58;;;;;;;0.40;0.40;;;;;;;10.48;68.91;100460.53;5125671;28;20024;-73
2022/09/09 02:13:25;;;;;;;0.50;0.50;;;;;;;10.53;68.98;100461.38;5126812;28;20016;-72
2022/09/09 02:16:04;;;;;;;0.40;0.40;;;;;;;10.60;68.97;100464.81;5127234;28;20026;-72
2022/09/09 02:18:40;;;;;;;0.40;0.40;;;;;;;10.56;68.99;100452.69;5126889;28;20026;-72
2022/09/09 02:21:07;;;;;;;0.40;0.40;;;;;;;10.58;68.95;100458.75;5108822;28;20024;-73
2022/09/09 02:23:34;;;;;;;0.40;0.40;;;;;;;10.60;69.09;100464.81;5108539;28;20072;-72
2022/09/09 02:26:01;;;;;;;0.40;0.40;;;;;;;10.63;69.00;100450.94;5108505;28;20083;-73
2022/09/09 02:28:30;;;;;;;0.32;0.32;;;;;;;10.62;68.93;100452.66;5126783;28;20463;-73
2022/09/09 02:30:55;;;;;;;0.40;0.40;;;;;;;10.65;68.85;100438.81;5126846;28;20039;-73
2022/09/09 02:33:36;;;;;;;0.38;0.38;;;;;;;10.63;68.91;100438.81;5126559;28;20024;-73
2022/09/09 02:36:06;;;;;;;0.30;0.30;;;;;;;10.71;68.76;100450.84;5127184;28;20057;-72
2022/09/09 02:38:39;;;;;;;0.40;0.40;;;;;;;10.69;69.04;100440.47;5108172;28;20347;-73
2022/09/09 02:41:06;;;;;;;0.40;0.40;;;;;;;10.53;69.19;100424.16;5126513;28;20123;-73
2022/09/09 02:43:33;;;;;;;0.50;0.50;;;;;;;10.65;69.17;100431.84;5108233;28;20015;-73
2022/09/09 02:46:29;;;;;;;0.30;0.30;;;;;;;10.65;69.19;100438.81;5126521;28;20050;-73
2022/09/09 02:48:59;;;;;;;0.38;0.38;;;;;;;10.66;69.14;100435.31;5126364;28;20028;-72
2022/09/09 02:51:54;;;;;;;0.40;0.40;;;;;;;10.66;69.33;100440.50;5126787;28;20382;-73
2022/09/09 02:54:31;;;;;;;0.43;0.43;;;;;;;10.64;69.24;100432.75;5125917;28;20027;-72
2022/09/09 02:57:05;;;;;;;0.40;0.40;;;;;;;10.63;69.52;100431.03;5126313;28;20037;-72
2022/09/09 02:59:31;;;;;;;0.40;0.40;;;;;;;10.64;69.40;100426.69;5126294;28;20023;-72
2022/09/09 03:01:56;;;;;;;0.40;0.40;;;;;;;10.63;69.35;100436.22;5108040;28;20020;-73
2022/09/09 03:04:21;;;;;;;0.40;0.40;;;;;;;10.61;69.35;100424.09;5107825;28;20034;-72
2022/09/09 03:06:47;;;;;;;0.50;0.50;;;;;;;10.60;69.44;100427.59;5126135;28;20035;-73
2022/09/09 03:09:12;;;;;;;0.30;0.30;;;;;;;10.59;69.53;100413.72;5125950;28;20020;-72
2022/09/09 03:11:38;;;;;;;0.40;0.40;;;;;;;10.58;69.33;100419.81;5126144;28;20034;-73
2022/09/09 03:14:04;;;;;;;0.40;0.40;;;;;;;10.63;69.44;100409.38;5126199;28;20030;-72
2022/09/09 03:16:30;;;;;;;0.30;0.30;;;;;;;10.54;69.40;100408.59;5126072;28;20045;-73
2022/09/09 03:18:55;;;;;;;4.05;3.70;;;;;;;10.52;69.82;100412.94;5126145;28;20098;-73
2022/09/09 03:21:21;;;;;;;0.30;0.30;;;;;;;10.50;69.85;100408.63;5126209;28;20023;-73
2022/09/09 03:23:46;;;;;;;1.15;1.15;;;;;;;10.55;69.74;100409.47;5126234;28;20023;-73
2022/09/09 03:26:14;;;;;;;0.40;0.40;;;;;;;10.54;69.55;100405.16;5107297;28;20111;-73
2022/09/09 03:28:39;;;;;;;0.40;0.40;;;;;;;10.55;69.95;100409.47;5124672;28;20371;-73
2022/09/09 03:31:05;;;;;;;0.40;0.40;;;;;;;10.47;70.16;100409.53;5124567;28;20023;-73
2022/09/09 03:33:31;;;;;;;0.40;0.40;;;;;;;10.52;70.24;100417.28;5125749;28;20030;-73
2022/09/09 03:35:57;;;;;;;0.40;0.40;;;;;;;10.53;70.14;100406.88;5125898;28;20019;-72
2022/09/09 03:38:25;;;;;;;0.50;0.50;;;;;;;10.50;70.54;100408.63;5125941;28;20406;-72
2022/09/09 03:40:55;;;;;;;0.40;0.40;;;;;;;10.51;70.54;100397.38;5125646;28;20053;-72
2022/09/09 03:43:21;;;;;;;0.40;0.40;;;;;;;10.45;70.47;100374.06;5125809;28;20471;-73
2022/09/09 03:45:47;;;;;;;0.40;0.40;;;;;;;10.55;70.68;100386.09;5125836;28;20134;-74
2022/09/09 03:48:13;;;;;;;0.38;0.38;;;;;;;10.54;70.61;100390.41;5125719;28;20529;-75
2022/09/09 03:50:39;;;;;;;0.30;0.30;;;;;;;10.63;70.47;100388.63;5125844;28;20547;-73
2022/09/09 03:53:05;;;;;;;0.30;0.30;;;;;;;10.60;70.52;100368.75;5125655;28;20471;-73
2022/09/09 03:55:32;;;;;;;0.40;0.40;;;;;;;10.60;70.67;100366.16;5125593;28;20024;-73
2022/09/09 03:57:57;;;;;;;0.30;0.30;;;;;;;10.62;70.65;100377.34;5125814;28;20024;-74
2022/09/09 04:00:22;;;;;;;0.30;0.30;;;;;;;10.62;70.62;100356.59;5125562;28;20169;-74
2022/09/09 04:02:49;;;;;;;0.40;0.40;;;;;;;10.61;70.71;100359.19;5125503;28;20092;-73
2022/09/09 04:05:15;;;;;;;0.40;0.40;;;;;;;10.59;70.91;100367.00;5125384;28;20044;-74
2022/09/09 04:07:40;;;;;;;0.30;0.30;;;;;;;10.55;71.04;100362.72;5129735;28;20028;-72
2022/09/09 04:10:08;;;;;;;0.30;0.30;;;;;;;10.63;70.83;100365.25;5110930;28;20091;-74
2022/09/09 04:12:34;;;;;;;0.30;0.30;;;;;;;10.61;70.96;100359.19;5129520;28;20027;-74
2022/09/09 04:15:01;;;;;;;0.40;0.40;;;;;;;10.60;71.10;100352.31;5129515;28;20569;-74
2022/09/09 04:17:27;;;;;;;0.40;0.40;;;;;;;10.59;71.15;100346.25;5129573;28;20032;-72
2022/09/09 04:19:53;;;;;;;0.30;0.30;;;;;;;10.59;71.24;100354.03;5129451;28;20051;-73
2022/09/09 04:22:18;;;;;;;0.30;0.30;;;;;;;10.58;70.99;100354.91;5129587;28;20020;-68
2022/09/09 04:24:43;;;;;;;0.40;0.40;;;;;;;10.64;70.99;100344.47;5129232;28;20027;-71
2022/09/09 04:27:09;;;;;;;0.40;0.40;;;;;;;10.63;71.34;100341.88;5111153;28;20028;-71
2022/09/09 04:29:34;;;;;;;0.40;0.40;;;;;;;10.61;71.12;100346.22;5129006;28;20016;-72
2022/09/09 04:32:00;;;;;;;0.40;0.40;;;;;;;10.65;71.23;100342.75;5129093;28;20027;-73
2022/09/09 04:34:25;;;;;;;0.30;0.30;;;;;;;10.68;71.27;100350.50;5111098;28;20027;-74
2022/09/09 04:36:51;;;;;;;0.38;0.38;;;;;;;10.70;71.32;100334.91;5111005;28;20023;-71
2022/09/09 04:39:17;;;;;;;2.47;2.05;;;;;;;10.74;71.29;100339.19;5129140;28;20020;-71
2022/09/09 04:41:42;;;;;;;0.35;0.35;;;;;;;10.87;71.15;100335.59;5128958;28;20019;-73
2022/09/09 04:44:08;;;;;;;5.68;2.70;;;;;;;10.89;70.96;100327.78;5129082;28;20023;-72
2022/09/09 04:46:34;;;;;;;0.40;0.40;;;;;;;10.93;70.89;100324.25;5110286;28;20076;-73
2022/09/09 04:48:59;;;;;;;0.40;0.40;;;;;;;11.09;70.75;100335.34;5128920;28;20027;-67
2022/09/09 04:51:25;;;;;;;0.32;0.32;;;;;;;11.13;70.56;100323.19;5128670;28;20034;-71
2022/09/09 04:53:51;;;;;;;0.60;0.60;;;;;;;11.15;70.63;100321.41;5128582;28;20062;-69
2022/09/09 04:56:17;;;;;;;0.40;0.40;;;;;;;11.25;70.26;100332.53;5109776;28;20024;-69
2022/09/09 04:58:43;;;;;;;0.40;0.40;;;;;;;11.19;70.14;100324.81;5128186;28;20024;-69
2022/09/09 05:01:17;;;;;;;0.30;0.30;;;;;;;11.29;70.18;100323.84;5128519;28;20481;-69
2022/09/09 05:03:45;;;;;;;0.40;0.40;;;;;;;11.31;69.83;100331.63;5128607;28;20023;-70
2022/09/09 05:06:15;;;;;;;0.40;0.40;;;;;;;11.40;69.75;100334.09;5128870;28;20026;-70
2022/09/09 05:08:42;;;;;;;0.30;0.30;;;;;;;11.40;69.56;100318.50;5128552;28;20064;-70
2022/09/09 05:11:24;;;;;;;0.40;0.40;;;;;;;11.38;69.89;100328.06;5128375;28;20076;-70
2022/09/09 05:13:50;;;;;;;0.50;0.50;;;;;;;11.44;69.57;100330.56;5110116;28;20028;-71
2022/09/09 05:16:16;;;;;;;0.40;0.40;;;;;;;11.39;69.74;100329.75;5128406;28;20031;-71
2022/09/09 05:18:42;;;;;;;0.57;0.57;;;;;;;11.55;69.57;100325.22;5128308;28;20038;-70
2022/09/09 05:21:09;;;;;;;0.30;0.30;;;;;;;11.63;69.75;100330.31;5128218;28;20377;-70
2022/09/09 05:23:35;;;;;;;0.40;0.40;;;;;;;11.84;69.45;100323.94;5128140;28;20015;-70
2022/09/09 05:26:01;;;;;;;0.50;0.50;;;;;;;12.03;69.02;100334.06;5128482;28;20091;-68
2022/09/09 05:28:27;;;;;;;0.40;0.40;;;;;;;12.22;68.72;100323.41;5128318;28;20023;-69
2022/09/09 05:30:57;;;;;;;0.30;0.30;;;;;;;12.45;68.16;100320.41;5128134;28;20044;-68
2022/09/09 05:33:23;;;;;;;0.30;0.30;;;;;;;12.62;67.55;100320.09;5109693;28;20037;-70
2022/09/09 05:35:56;;;;;;;0.30;0.30;;;;;;;12.79;67.61;100318.06;5128305;28;20028;-69
2022/09/09 05:38:24;;;;;;;0.40;0.40;;;;;;;12.91;65.72;100330.84;5128137;28;20077;-68
2022/09/09 05:40:49;;;;;;;0.30;0.30;;;;;;;12.69;66.11;100338.22;5127724;28;20076;-69
2022/09/09 05:43:15;;;;;;;0.35;0.35;;;;;;;12.62;66.17;100337.50;5128094;28;20400;-69
2022/09/09 05:45:40;;;;;;;0.30;0.30;;;;;;;12.52;66.04;100340.22;5127926;28;20020;-69
2022/09/09 05:48:07;;;;;;;0.30;0.30;;;;;;;12.37;66.33;100323.16;5127798;28;20054;-69
2022/09/09 05:50:32;;;;;;;0.40;0.40;;;;;;;12.42;66.10;100343.03;5127332;28;20035;-68
2022/09/09 05:52:57;;;;;;;0.30;0.30;;;;;;;12.38;66.23;100340.47;5127677;28;20027;-68
2022/09/09 05:55:23;;;;;;;0.40;0.40;;;;;;;12.31;66.49;100341.47;5127333;28;20394;-68
2022/09/09 05:57:49;;;;;;;0.30;0.30;;;;;;;12.29;66.63;100339.75;5127675;28;20155;-67
2022/09/09 06:00:15;;;;;;;0.35;0.35;;;;;;;12.39;66.55;100337.00;5127424;28;20024;-69
2022/09/09 06:02:41;;;;;;;0.30;0.30;;;;;;;12.37;66.70;100340.50;5127850;28;20041;-68
2022/09/09 06:05:08;;;;;;;0.40;0.40;;;;;;;12.37;66.63;100330.09;5127448;28;20020;-67
2022/09/09 06:07:33;;;;;;;0.30;0.30;;;;;;;12.38;66.80;100326.63;5127476;28;20075;-67
2022/09/09 06:09:58;;;;;;;0.38;0.38;;;;;;;12.37;67.02;100341.38;5127033;28;20031;-68
2022/09/09 06:12:25;;;;;;;0.40;0.40;;;;;;;12.36;67.16;100331.81;5127369;28;20029;-69
2022/09/09 06:14:51;;;;;;;0.30;0.30;;;;;;;12.50;66.89;100338.56;5127442;28;20028;-68
2022/09/09 06:17:17;;;;;;;0.30;0.30;;;;;;;12.44;66.83;100329.13;5127354;28;20076;-69
2022/09/09 06:19:42;;;;;;;0.40;0.40;;;;;;;12.54;67.05;100350.63;5127160;28;20115;-69
2022/09/09 06:22:09;;;;;;;0.40;0.40;;;;;;;12.51;67.19;100340.25;5127279;28;20072;-68
2022/09/09 06:24:34;;;;;;;0.40;0.40;;;;;;;12.57;67.18;100342.75;5108467;28;20043;-71
2022/09/09 06:27:00;;;;;;;0.30;0.30;;;;;;;12.59;67.24;100340.13;5127202;28;20019;-69
2022/09/09 06:29:25;;;;;;;0.32;0.32;;;;;;;12.64;67.08;100336.56;5126231;28;20024;-69
2022/09/09 06:31:50;;;;;;;0.30;0.30;;;;;;;12.67;67.13;100333.03;5127305;28;20088;-69
2022/09/09 06:34:16;;;;;;;0.32;0.32;;;;;;;12.75;67.04;100336.34;5126972;28;20032;-69
2022/09/09 06:36:42;;;;;;;0.30;0.30;;;;;;;12.73;66.91;100335.53;5127095;28;20043;-69
2022/09/09 06:39:10;;;;;;;0.30;0.30;;;;;;;12.76;66.93;100334.63;5126913;28;20023;-69
2022/09/09 06:41:36;;;;;;;0.30;0.30;;;;;;;12.81;66.97;100326.72;5126409;28;20022;-69
2022/09/09 06:44:02;;;;;;;1.77;1.67;;;;;;;12.86;66.57;100325.72;5108682;28;20016;-69
2022/09/09 06:46:32;;;;;;;0.30;0.30;;;;;;;12.87;66.84;100327.47;5127066;28;20070;-69
2022/09/09 06:48:59;;;;;;;0.30;0.30;;;;;;;12.93;66.76;100315.19;5127181;28;20020;-69
2022/09/09 06:51:34;;;;;;;0.40;0.40;;;;;;;12.94;66.53;100314.31;5127241;28;20023;-68
2022/09/09 06:54:02;;;;;;;0.30;0.30;;;;;;;12.97;66.87;100328.13;5127033;28;20042;-68
2022/09/09 06:56:30;;;;;;;0.40;0.40;;;;;;;13.10;66.50;100331.34;5126769;28;20081;-68
2022/09/09 06:58:59;;;;;;;0.30;0.30;;;;;;;13.11;66.44;100325.25;5126901;28;20040;-69
2022/09/09 07:01:27;;;;;;;0.30;0.30;;;;;;;13.10;66.78;100323.53;5127127;28;20027;-69
2022/09/09 07:03:54;;;;;;;0.30;0.30;;;;;;;13.18;66.80;100336.41;5126764;28;20097;-68
2022/09/09 07:06:19;;;;;;;0.30;0.30;;;;;;;13.26;66.67;100329.28;5126920;28;20034;-69
2022/09/09 07:08:53;;;;;;;0.30;0.30;;;;;;;13.29;66.79;100328.34;5108127;28;20467;-69
2022/09/09 07:11:20;;;;;;;0.40;0.40;;;;;;;13.36;66.64;100316.06;5126138;28;20019;-69
2022/09/09 07:13:46;;;;;;;0.30;0.30;;;;;;;13.48;66.16;100315.78;5126422;28;20073;-69
2022/09/09 07:16:14;;;;;;;0.30;0.30;;;;;;;13.54;66.16;100317.44;5126336;28;20019;-69
2022/09/09 07:18:41;;;;;;;0.30;0.30;;;;;;;13.62;66.13;100315.53;5126319;28;20170;-69
2022/09/09 07:21:08;;;;;;;0.30;0.30;;;;;;;13.73;65.73;100320.50;5126245;28;20483;-69
2022/09/09 07:23:35;;;;;;;0.40;0.40;;;;;;;13.97;64.93;100333.88;5126134;28;20027;-70
2022/09/09 07:26:00;;;;;;;0.30;0.30;;;;;;;13.85;65.31;100321.09;5125903;28;20027;-69
2022/09/09 07:28:27;;;;;;;0.30;0.30;;;;;;;13.86;65.41;100322.81;5125075;28;20020;-70
2022/09/09 07:30:54;;;;;;;0.30;0.30;;;;;;;13.86;65.42;100318.47;5125150;28;20026;-69
2022/09/09 07:33:19;;;;;;;0.73;0.73;;;;;;;13.92;65.13;100311.34;5126276;28;20116;-69
2022/09/09 07:35:45;;;;;;;0.30;0.30;;;;;;;13.94;65.06;100322.63;5107885;28;20035;-69
2022/09/09 07:38:11;;;;;;;0.30;0.30;;;;;;;14.05;64.84;100324.97;5107877;28;20030;-69
2022/09/09 07:40:36;;;;;;;0.30;0.30;;;;;;;14.08;64.65;100317.06;5128165;28;20027;-69
2022/09/09 07:43:01;;;;;;;0.30;0.30;;;;;;;14.07;64.99;100315.38;5130518;28;20024;-69
2022/09/09 07:45:28;;;;;;;0.30;0.30;;;;;;;14.09;64.69;100306.59;5112094;28;20032;-69
2022/09/09 07:47:53;;;;;;;0.30;0.30;;;;;;;14.13;64.57;100326.53;5130043;28;20097;-69
2022/09/09 07:50:20;;;;;;;0.30;0.30;;;;;;;14.21;64.24;100315.00;5130089;28;20051;-69
2022/09/09 07:52:45;;;;;;;0.30;0.30;;;;;;;14.22;64.37;100314.09;5130124;28;20532;-69
2022/09/09 07:55:10;;;;;;;1.30;1.20;;;;;;;14.34;64.07;100329.50;5129895;28;20019;-72
2022/09/09 07:57:36;;;;;;;1.40;0.93;;;;;;;14.15;64.38;100294.28;5130010;28;20023;-69
2022/09/09 08:00:03;;;;;;;0.30;0.30;;;;;;;14.28;64.19;100321.78;5111702;28;20088;-70
2022/09/09 08:02:29;;;;;;;0.30;0.30;;;;;;;14.45;63.63;100308.31;5130099;28;20016;-69
2022/09/09 08:04:54;;;;;;;0.30;0.30;;;;;;;14.35;63.95;100302.47;5130085;28;20043;-69
2022/09/09 08:07:21;;;;;;;0.30;0.30;;;;;;;14.35;63.99;100315.53;5130108;28;20028;-69
2022/09/09 08:09:46;;;;;;;0.30;0.30;;;;;;;14.46;63.86;100317.84;5129443;28;20050;-69
2022/09/09 08:12:12;;;;;;;0.30;0.30;;;;;;;14.61;63.37;100326.19;5129747;28;20383;-70
2022/09/09 08:14:39;;;;;;;0.30;0.30;;;;;;;14.70;62.95;100318.09;5129724;28;20472;-69
2022/09/09 08:17:05;;;;;;;0.30;0.30;;;;;;;14.64;63.28;100326.09;5129788;28;20030;-69
2022/09/09 08:19:35;;;;;;;0.30;0.30;;;;;;;14.76;62.96;100309.22;5129710;28;20038;-70
2022/09/09 08:22:01;;;;;;;0.30;0.30;;;;;;;14.71;62.99;100305.91;5111265;28;20084;-69
2022/09/09 08:24:27;;;;;;;0.30;0.30;;;;;;;14.80;62.77;100316.13;5111111;28;20064;-69
2022/09/09 08:26:53;;;;;;;0.30;0.30;;;;;;;15.01;62.31;100318.19;5129274;28;20047;-69
2022/09/09 08:29:19;;;;;;;0.30;0.30;;;;;;;14.85;62.87;100316.00;5129311;28;20080;-69
2022/09/09 08:31:57;;;;;;;0.30;0.30;;;;;;;14.97;62.57;100325.25;5129438;28;20028;-70
2022/09/09 08:34:23;;;;;;;0.30;0.30;;;;;;;14.84;62.44;100322.13;5129531;28;20019;-69
2022/09/09 08:36:50;;;;;;;0.30;0.30;;;;;;;14.81;63.00;100322.22;5129314;28;20019;-68
2022/09/09 08:39:18;;;;;;;0.30;0.30;;;;;;;14.95;62.07;100340.97;5110831;28;20068;-69
2022/09/09 08:42:00;;;;;;;0.30;0.30;;;;;;;15.00;61.99;100327.75;5129150;28;20104;-69
2022/09/09 08:44:35;;;;;;;0.45;0.45;;;;;;;14.89;62.56;100316.78;5129280;28;20019;-69
2022/09/09 08:47:07;;;;;;;0.30;0.30;;;;;;;14.89;62.85;100338.53;5128940;28;20506;-69
2022/09/09 08:49:50;;;;;;;0.32;0.32;;;;;;;14.87;62.91;100330.72;5129159;28;20046;-69
2022/09/09 08:52:22;;;;;;;0.30;0.30;;;;;;;14.94;62.44;100312.25;5128250;28;20024;-69
2022/09/09 08:54:48;;;;;;;1.48;1.48;;;;;;;14.95;62.61;100317.44;5128951;28;20095;-69
2022/09/09 08:57:21;;;;;;;0.30;0.30;;;;;;;14.89;63.01;100311.56;5128899;28;20043;-69
2022/09/09 08:59:50;;;;;;;0.30;0.30;;;;;;;14.89;62.85;100329.84;5128571;28;20031;-70
2022/09/09 09:02:24;;;;;;;0.30;0.30;;;;;;;14.91;62.90;100335.88;5128865;28;20016;-69
2022/09/09 09:04:54;;;;;;;0.32;0.32;;;;;;;14.94;62.84;100328.81;5128927;28;20024;-69
2022/09/09 09:07:35;;;;;;;0.30;0.30;;;;;;;14.96;62.72;100334.00;5128812;28;20091;-69
2022/09/09 09:10:12;;;;;;;0.30;0.30;;;;;;;14.95;62.94;100335.75;5110146;28;20076;-69
2022/09/09 09:12:41;;;;;;;0.40;0.40;;;;;;;15.01;62.67;100326.03;5128496;28;20072;-69
2022/09/09 09:15:22;;;;;;;0.30;0.30;;;;;;;15.10;62.80;100338.81;5128621;28;20019;-69
2022/09/09 09:17:48;;;;;;;0.30;0.30;;;;;;;15.16;62.38;100315.13;5128628;28;20049;-69
2022/09/09 09:20:16;;;;;;;0.30;0.30;;;;;;;15.14;62.73;100322.16;5128303;28;20028;-68
2022/09/09 09:22:50;;;;;;;0.30;0.30;;;;;;;15.18;62.56;100320.28;5128476;28;20161;-67
2022/09/09 09:25:22;;;;;;;0.30;0.30;;;;;;;15.20;62.61;100332.44;5128266;28;20122;-68
2022/09/09 09:27:50;;;;;;;0.32;0.32;;;;;;;15.24;62.40;100325.34;5128356;28;20020;-70
2022/09/09 09:30:21;;;;;;;0.60;0.60;;;;;;;15.29;61.96;100347.00;5128265;28;20118;-69
2022/09/09 09:33:01;;;;;;;0.40;0.40;;;;;;;15.37;62.06;100310.16;5128294;28;20023;-69
2022/09/09 09:35:26;;;;;;;0.35;0.35;;;;;;;15.33;62.16;100325.09;5128137;28;20425;-69
2022/09/09 09:37:52;;;;;;;0.40;0.40;;;;;;;15.41;61.92;100313.53;5128117;28;20028;-69
2022/09/09 09:40:20;;;;;;;0.30;0.30;;;;;;;15.47;61.66;100316.84;5127641;28;20028;-69
2022/09/09 09:42:57;;;;;;;0.30;0.30;;;;;;;15.45;61.96;100312.53;5109407;28;20132;-69
2022/09/09 09:45:41;;;;;;;0.30;0.30;;;;;;;15.51;61.64;100330.66;5128222;28;20027;-69
2022/09/09 09:48:11;;;;;;;0.30;0.30;;;;;;;15.49;62.04;100322.03;5127985;28;20062;-70
2022/09/09 09:50:57;;;;;;;0.35;0.35;;;;;;;15.63;61.47;100311.13;5127856;28;20058;-70
2022/09/09 09:53:28;;;;;;;0.30;0.30;;;;;;;15.53;61.96;100323.63;5127891;28;20028;-69
2022/09/09 09:55:59;;;;;;;0.40;0.40;;;;;;;15.54;61.90;100330.59;5127429;28;20479;-70
2022/09/09 09:58:27;;;;;;;0.40;0.40;;;;;;;15.42;62.34;100323.09;5127669;28;20056;-70
2022/09/09 10:00:54;;;;;;;0.30;0.30;;;;;;;15.41;62.64;100327.47;5126504;28;20083;-70
2022/09/09 10:03:26;;;;;;;0.30;0.30;;;;;;;15.23;63.28;100321.03;5125419;28;20088;-69
2022/09/09 10:05:53;;;;;;;0.30;0.30;;;;;;;15.14;64.12;100316.06;5126161;28;20020;-69
2022/09/09 10:08:19;;;;;;;0.30;0.30;;;;;;;15.08;64.46;100319.72;5127125;28;20023;-69
2022/09/09 10:10:48;;;;;;;0.22;0.22;;;;;;;15.11;64.87;100330.94;5108626;28;20380;-70
2022/09/09 10:13:25;;;;;;;0.30;0.30;;;;;;;15.03;64.73;100321.63;5109275;28;20023;-70
2022/09/09 10:16:06;;;;;;;0.30;0.30;;;;;;;15.00;64.85;100322.53;5127281;28;20065;-70
2022/09/09 10:18:56;;;;;;;0.30;0.30;;;;;;;14.86;65.78;100334.25;5127191;28;20051;-69
2022/09/09 10:21:46;;;;;;;0.30;0.30;;;;;;;14.75;66.45;100331.03;5127110;28;20442;-71
2022/09/09 10:24:37;;;;;;;0.30;0.30;;;;;;;14.68;66.64;100326.88;5127088;28;20054;-71
2022/09/09 10:27:23;;;;;;;0.30;0.30;;;;;;;14.48;67.55;100325.66;5126827;28;20045;-72
2022/09/09 10:30:14;;;;;;;0.32;0.32;;;;;;;14.37;68.07;100326.81;5126906;28;20386;-73
2022/09/09 10:32:51;;;;;;;0.30;0.30;;;;;;;14.30;68.58;100319.13;5126958;28;20047;-73
2022/09/09 10:35:30;;;;;;;0.95;0.95;;;;;;;14.25;69.56;100330.56;5126933;28;20083;-74
2022/09/09 10:38:02;;;;;;;0.30;0.30;;;;;;;14.11;70.04;100333.53;5109126;28;20023;-74
2022/09/09 10:40:33;;;;;;;0.40;0.40;;;;;;;14.03;70.71;100329.38;5126294;28;20027;-72
2022/09/09 10:43:12;;;;;;;0.50;0.50;;;;;;;13.91;71.31;100333.13;5126855;28;20047;-70
2022/09/09 10:46:01;;;;;;;0.30;0.30;;;;;;;13.84;72.01;100329.81;5126656;28;20399;-71
2022/09/09 10:48:35;;;;;;;0.45;0.45;;;;;;;13.87;72.39;100334.97;5126574;28;20051;-72
2022/09/09 10:51:24;;;;;;;0.40;0.40;;;;;;;13.82;73.24;100331.59;5126476;28;20052;-71
2022/09/09 10:54:18;;;;;;;0.52;0.52;;;;;;;13.77;73.78;100334.31;5126677;28;20049;-72
2022/09/09 10:56:54;;;;;;;0.30;0.30;;;;;;;13.77;74.25;100339.53;5107907;28;20082;-74
2022/09/09 10:59:26;;;;;;;0.30;0.30;;;;;;;13.80;74.39;100343.84;5108555;28;20095;-72
2022/09/09 11:01:55;;;;;;;;;;;;;;;13.82;74.68;100342.03;5127072;28;20026;-71
2022/09/09 11:04:25;;;;;;;0.50;0.50;;;;;;;13.68;74.84;100353.66;5126349;28;19952;-70
2022/09/09 11:06:54;;;;;;;0.30;0.30;;;;;;;13.58;75.46;100349.50;5126519;28;20023;-69
2022/09/09 11:09:27;;;;;;;0.30;0.30;;;;;;;13.48;76.15;100349.69;5126380;28;20027;-68
2022/09/09 11:11:54;;;;;;;0.30;0.30;;;;;;;13.42;76.72;100359.41;5126012;28;20360;-68
2022/09/09 11:14:32;;;;;;;0.30;0.30;;;;;;;13.37;77.20;100346.47;5107628;28;20116;-69
2022/09/09 11:17:04;;;;;;;0.30;0.30;;;;;;;13.37;77.82;100357.75;5126211;28;20049;-68
2022/09/09 11:19:39;;;;;;;0.50;0.50;;;;;;;13.37;78.19;100356.91;5126361;28;20061;-68
2022/09/09 11:22:21;;;;;;;0.40;0.40;;;;;;;13.35;78.93;100356.06;5126341;28;20543;-68
2022/09/09 11:25:14;;;;;;;0.40;0.40;;;;;;;13.32;79.66;100353.53;5126255;28;20030;-68
2022/09/09 11:27:56;;;;;;;0.30;0.30;;;;;;;13.31;80.56;100362.22;5125277;28;20059;-70
2022/09/09 11:30:26;;;;;;;;;;;;;;;13.31;81.23;100363.09;5125411;28;20030;-67
2022/09/09 11:33:04;;;;;;;0.30;0.30;;;;;;;13.22;81.35;100358.94;5126140;28;19914;-68
2022/09/09 11:35:45;;;;;;;0.47;0.47;;;;;;;13.19;81.67;100359.00;5107834;28;20046;-67
2022/09/09 11:38:19;;;;;;;0.30;0.30;;;;;;;13.14;82.24;100355.59;5126095;28;20023;-67
2022/09/09 11:40:45;;;;;;;0.30;0.30;;;;;;;13.16;82.60;100363.41;5125789;28;20047;-67
2022/09/09 11:43:28;;;;;;;0.30;0.30;;;;;;;13.11;83.26;100356.53;5126185;28;20034;-67
2022/09/09 11:45:58;;;;;;;0.30;0.30;;;;;;;13.02;83.41;100352.34;5126320;28;20156;-67